createdAt,value
2022-08-08T00:00:56.317Z,25.10
2022-08-08T00:03:32.176Z,25.00
2022-08-08T00:06:34.691Z,25.00
2022-08-08T00:09:04.049Z,25.00
2022-08-08T00:12:02.858Z,25.00
2022-08-08T00:14:56.894Z,25.00
2022-08-08T00:17:23.297Z,25.00
2022-08-08T00:19:56.930Z,25.00
2022-08-08T00:22:31.041Z,25.20
2022-08-08T00:25:02.796Z,25.30
2022-08-08T00:27:32.963Z,25.40
2022-08-08T00:30:11.217Z,25.40
2022-08-08T00:32:50.545Z,25.40
2022-08-08T00:35:21.028Z,25.30
2022-08-08T00:38:02.202Z,25.30
2022-08-08T00:41:06.467Z,25.20
2022-08-08T00:43:19.687Z,25.10
2022-08-08T00:46:05.723Z,25.10
2022-08-08T00:49:01.983Z,25.00
2022-08-08T00:51:58.636Z,25.00
2022-08-08T00:54:40.544Z,24.90
2022-08-08T00:57:07.252Z,24.80
2022-08-08T00:59:46.672Z,24.80
2022-08-08T01:03:18.169Z,24.80
2022-08-08T01:05:58.660Z,24.70
2022-08-08T01:08:17.799Z,24.70
2022-08-08T01:11:03.188Z,24.70
2022-08-08T01:13:52.846Z,24.70
2022-08-08T01:16:35.288Z,24.60
2022-08-08T01:19:11.638Z,24.60
2022-08-08T01:22:13.558Z,24.60
2022-08-08T01:25:14.329Z,24.80
2022-08-08T01:28:02.503Z,24.90
2022-08-08T01:30:32.443Z,25.10
2022-08-08T01:33:02.402Z,25.20
2022-08-08T01:35:55.506Z,25.20
2022-08-08T01:38:30.973Z,25.10
2022-08-08T01:41:01.635Z,25.00
2022-08-08T01:43:38.493Z,25.00
2022-08-08T01:46:08.948Z,25.00
2022-08-08T01:48:54.169Z,24.90
2022-08-08T01:52:42.795Z,24.90
2022-08-08T01:55:45.634Z,24.90
2022-08-08T01:57:33.828Z,24.80
2022-08-08T02:00:13.935Z,24.80
2022-08-08T02:02:59.878Z,24.70
2022-08-08T02:05:55.896Z,24.70
2022-08-08T02:08:56.084Z,24.70
2022-08-08T02:11:52.904Z,24.60
2022-08-08T02:14:33.925Z,24.60
2022-08-08T02:17:20.362Z,24.60
2022-08-08T02:20:07.848Z,24.50
2022-08-08T02:22:52.885Z,24.50
2022-08-08T02:25:43.572Z,24.60
2022-08-08T02:28:35.261Z,24.70
2022-08-08T02:31:43.253Z,24.90
2022-08-08T02:34:08.701Z,25.00
2022-08-08T02:36:40.780Z,25.00
2022-08-08T02:39:40.907Z,25.00
2022-08-08T02:42:03.847Z,24.90
2022-08-08T02:44:58.750Z,24.80
2022-08-08T02:47:41.448Z,24.80
2022-08-08T02:50:23.036Z,24.80
2022-08-08T02:52:58.895Z,24.70
2022-08-08T02:55:36.572Z,24.60
2022-08-08T02:58:22.942Z,24.60
2022-08-08T03:00:59.792Z,24.60
2022-08-08T03:05:00.298Z,24.60
2022-08-08T03:06:24.246Z,24.60
2022-08-08T03:09:04.942Z,24.50
2022-08-08T03:12:01.968Z,24.50
2022-08-08T03:15:57.395Z,24.50
2022-08-08T03:17:25.597Z,24.40
2022-08-08T03:20:03.593Z,24.50
2022-08-08T03:22:40.498Z,24.40
2022-08-08T03:25:18.782Z,24.40
2022-08-08T03:27:57.569Z,24.30
2022-08-08T03:30:24.415Z,24.40
2022-08-08T03:33:55.766Z,24.40
2022-08-08T03:35:56.850Z,24.10
2022-08-08T03:38:57.202Z,23.70
2022-08-08T03:41:43.098Z,23.20
2022-08-08T03:43:59.714Z,22.80
2022-08-08T03:46:32.407Z,22.50
2022-08-08T03:49:15.272Z,22.20
2022-08-08T03:51:51.338Z,22.00
2022-08-08T03:54:51.805Z,21.70
2022-08-08T03:58:29.853Z,21.40
2022-08-08T04:00:02.619Z,21.20
2022-08-08T04:02:47.865Z,21.00
2022-08-08T04:05:28.452Z,20.80
2022-08-08T04:07:56.139Z,20.70
2022-08-08T04:10:24.729Z,20.60
2022-08-08T04:12:51.426Z,20.40
2022-08-08T04:15:18.163Z,20.40
2022-08-08T04:17:59.222Z,20.20
2022-08-08T04:20:28.752Z,20.20
2022-08-08T04:22:57.155Z,20.10
2022-08-08T04:25:30.151Z,20.00
2022-08-08T04:28:36.439Z,20.00
2022-08-08T04:30:51.716Z,19.90
2022-08-08T04:33:22.044Z,19.90
2022-08-08T04:35:51.657Z,19.80
2022-08-08T04:38:21.094Z,19.90
2022-08-08T04:40:53.559Z,19.90
2022-08-08T04:43:22.003Z,20.00
2022-08-08T04:45:49.639Z,20.10
2022-08-08T04:48:16.317Z,20.20
2022-08-08T04:50:46.070Z,20.20
2022-08-08T04:53:13.988Z,20.30
2022-08-08T04:55:59.897Z,20.30
2022-08-08T04:58:26.593Z,20.30
2022-08-08T05:00:53.262Z,20.30
2022-08-08T05:04:11.124Z,20.40
2022-08-08T05:06:12.713Z,20.40
2022-08-08T05:08:41.492Z,20.40
2022-08-08T05:11:08.282Z,20.40
2022-08-08T05:13:36.959Z,20.40
2022-08-08T05:16:51.030Z,20.50
2022-08-08T05:20:10.149Z,20.80
2022-08-08T05:22:00.714Z,21.10
2022-08-08T05:24:27.636Z,21.40
2022-08-08T05:26:54.337Z,21.60
2022-08-08T05:29:21.000Z,21.80
2022-08-08T05:32:03.310Z,22.00
2022-08-08T05:34:36.575Z,22.20
2022-08-08T05:37:03.732Z,22.40
2022-08-08T05:39:43.305Z,22.40
2022-08-08T05:42:10.186Z,22.50
2022-08-08T05:44:37.396Z,22.60
2022-08-08T05:47:06.092Z,22.70
2022-08-08T05:49:32.775Z,22.80
2022-08-08T05:52:05.010Z,22.80
2022-08-08T05:54:49.705Z,22.90
2022-08-08T05:57:20.969Z,23.00
2022-08-08T06:00:25.045Z,23.00
2022-08-08T06:03:17.208Z,23.00
2022-08-08T06:05:52.154Z,23.10
2022-08-08T06:08:34.895Z,23.10
2022-08-08T06:11:02.098Z,23.10
2022-08-08T06:13:35.632Z,23.20
2022-08-08T06:16:03.325Z,23.20
2022-08-08T06:18:30.224Z,23.20
2022-08-08T06:20:57.880Z,23.30
2022-08-08T06:23:48.525Z,23.20
2022-08-08T06:26:42.956Z,23.30
2022-08-08T06:28:58.378Z,23.30
2022-08-08T06:31:32.122Z,23.30
2022-08-08T06:34:25.952Z,23.40
2022-08-08T06:36:55.516Z,23.40
2022-08-08T06:39:23.609Z,23.50
2022-08-08T06:41:51.219Z,23.60
2022-08-08T06:44:18.562Z,23.70
2022-08-08T06:46:52.491Z,23.90
2022-08-08T06:49:19.471Z,24.00
2022-08-08T06:52:06.140Z,24.20
2022-08-08T06:54:32.960Z,24.30
2022-08-08T06:57:00.020Z,24.50
2022-08-08T06:59:27.025Z,24.50
2022-08-08T07:02:21.504Z,24.50
2022-08-08T07:04:58.569Z,24.40
2022-08-08T07:07:33.040Z,24.30
2022-08-08T07:10:07.949Z,24.30
2022-08-08T07:12:47.394Z,24.20
2022-08-08T07:15:23.177Z,24.20
2022-08-08T07:18:35.621Z,24.10
2022-08-08T07:20:54.500Z,24.20
2022-08-08T07:23:57.660Z,24.10
2022-08-08T07:26:18.148Z,24.10
2022-08-08T07:28:56.555Z,24.10
2022-08-08T07:31:24.324Z,24.10
2022-08-08T07:33:53.464Z,24.10
2022-08-08T07:36:25.725Z,24.00
2022-08-08T07:38:53.349Z,24.10
2022-08-08T07:41:25.058Z,24.00
2022-08-08T07:43:53.570Z,24.10
2022-08-08T07:46:30.137Z,24.10
2022-08-08T07:48:57.710Z,24.10
2022-08-08T07:51:44.880Z,24.10
2022-08-08T07:54:26.861Z,24.10
2022-08-08T07:57:03.304Z,24.30
2022-08-08T07:59:38.218Z,24.50
2022-08-08T08:02:35.953Z,24.60
2022-08-08T08:04:53.357Z,24.80
2022-08-08T08:07:26.012Z,24.80
2022-08-08T08:09:58.685Z,24.80
2022-08-08T08:12:35.537Z,24.70
2022-08-08T08:15:10.308Z,24.70
2022-08-08T08:17:47.801Z,24.60
2022-08-08T08:20:16.765Z,24.60
2022-08-08T08:22:43.517Z,24.50
2022-08-08T08:25:10.245Z,24.50
2022-08-08T08:27:37.134Z,24.40
2022-08-08T08:30:04.374Z,24.40
2022-08-08T08:32:41.000Z,24.40
2022-08-08T08:35:16.272Z,24.40
2022-08-08T08:38:13.047Z,24.30
2022-08-08T08:40:29.949Z,24.40
2022-08-08T08:42:57.406Z,24.30
2022-08-08T08:45:24.216Z,24.30
2022-08-08T08:47:54.295Z,24.40
2022-08-08T08:50:33.520Z,24.30
2022-08-08T08:53:27.415Z,24.30
2022-08-08T08:55:53.008Z,24.30
2022-08-08T08:58:20.859Z,24.30
2022-08-08T09:01:08.559Z,24.30
2022-08-08T09:03:47.040Z,24.50
2022-08-08T09:06:28.645Z,24.70
2022-08-08T09:09:18.840Z,25.00
2022-08-08T09:12:02.189Z,25.00
2022-08-08T09:14:34.460Z,25.10
2022-08-08T09:17:07.072Z,25.00
2022-08-08T09:21:54.117Z,25.00
2022-08-08T09:22:26.742Z,24.90
2022-08-08T09:24:54.291Z,24.80
2022-08-08T09:27:22.825Z,24.80
2022-08-08T09:30:10.691Z,24.70
2022-08-08T09:33:01.284Z,24.70
2022-08-08T09:35:32.061Z,24.60
2022-08-08T09:38:02.706Z,24.60
2022-08-08T09:40:43.277Z,24.60
2022-08-08T09:43:16.629Z,24.60
2022-08-08T09:46:03.139Z,24.50
2022-08-08T09:48:38.869Z,24.50
2022-08-08T09:51:09.482Z,24.50
2022-08-08T09:54:01.132Z,24.50
2022-08-08T09:56:27.829Z,24.50
2022-08-08T09:58:58.022Z,24.50
2022-08-08T10:02:00.046Z,24.70
2022-08-08T10:04:14.297Z,24.80
2022-08-08T10:06:45.208Z,25.10
2022-08-08T10:09:12.077Z,25.20
2022-08-08T10:12:27.878Z,25.20
2022-08-08T10:14:38.705Z,25.20
2022-08-08T10:17:57.126Z,25.10
2022-08-08T10:19:57.671Z,25.10
2022-08-08T10:22:25.934Z,25.00
2022-08-08T10:24:53.881Z,25.00
2022-08-08T10:27:20.586Z,24.90
2022-08-08T10:29:58.600Z,24.80
2022-08-08T10:32:37.317Z,24.80
2022-08-08T10:35:11.721Z,24.80
2022-08-08T10:37:51.250Z,24.70
2022-08-08T10:40:19.824Z,24.70
2022-08-08T10:42:48.196Z,24.70
2022-08-08T10:45:15.878Z,24.60
2022-08-08T10:47:53.718Z,24.70
2022-08-08T10:50:23.741Z,24.80
2022-08-08T10:52:50.608Z,25.00
2022-08-08T10:55:39.941Z,25.20
2022-08-08T10:58:06.617Z,25.40
2022-08-08T11:00:35.648Z,25.40
2022-08-08T11:03:15.877Z,25.30
2022-08-08T11:05:43.646Z,25.20
2022-08-08T11:08:37.054Z,25.20
2022-08-08T11:11:08.306Z,25.10
2022-08-08T11:14:00.764Z,25.00
2022-08-08T11:16:32.484Z,25.00
2022-08-08T11:19:00.138Z,25.00
2022-08-08T11:21:34.862Z,24.90
2022-08-08T11:24:04.841Z,24.90
2022-08-08T11:26:34.426Z,24.80
2022-08-08T11:29:05.537Z,24.80
2022-08-08T11:31:43.218Z,24.80
2022-08-08T11:34:23.335Z,24.90
2022-08-08T11:36:52.519Z,25.10
2022-08-08T11:39:25.446Z,25.30
2022-08-08T11:41:52.951Z,25.40
2022-08-08T11:44:28.942Z,25.40
2022-08-08T11:46:57.971Z,25.40
2022-08-08T11:49:25.008Z,25.30
2022-08-08T11:51:54.506Z,25.30
2022-08-08T11:54:33.607Z,25.20
2022-08-08T11:57:14.610Z,25.20
2022-08-08T11:59:58.329Z,25.10
2022-08-08T12:02:32.678Z,25.00
2022-08-08T12:05:07.394Z,25.00
2022-08-08T12:07:46.897Z,25.00
2022-08-08T12:10:18.614Z,24.90
2022-08-08T12:12:48.027Z,24.90
2022-08-08T12:15:39.878Z,25.00
2022-08-08T12:18:21.257Z,25.10
2022-08-08T12:20:49.438Z,25.30
2022-08-08T12:23:40.316Z,25.50
2022-08-08T12:26:28.135Z,25.50
2022-08-08T12:29:02.726Z,25.50
2022-08-08T12:31:30.696Z,25.40
2022-08-08T12:34:07.192Z,25.40
2022-08-08T12:36:46.179Z,25.30
2022-08-08T12:39:13.451Z,25.20
2022-08-08T12:41:57.521Z,25.20
2022-08-08T12:44:32.232Z,25.10
2022-08-08T12:47:01.053Z,25.10
2022-08-08T12:49:43.139Z,25.00
2022-08-08T12:52:28.607Z,25.00
2022-08-08T12:55:02.707Z,25.00
2022-08-08T12:57:49.606Z,25.00
2022-08-08T13:00:33.858Z,25.20
2022-08-08T13:03:01.827Z,25.40
2022-08-08T13:06:03.114Z,25.60
2022-08-08T13:08:18.696Z,25.70
2022-08-08T13:10:55.439Z,25.60
2022-08-08T13:13:35.172Z,25.60
2022-08-08T13:16:19.998Z,25.50
2022-08-08T13:18:56.269Z,25.40
2022-08-08T13:21:36.497Z,25.40
2022-08-08T13:24:18.651Z,25.30
2022-08-08T13:27:06.189Z,25.20
2022-08-08T13:29:47.260Z,25.20
2022-08-08T13:32:13.965Z,25.10
2022-08-08T13:34:42.135Z,25.10
2022-08-08T13:37:10.822Z,25.10
2022-08-08T13:39:50.264Z,25.10
2022-08-08T13:42:18.092Z,25.10
2022-08-08T13:44:47.799Z,25.20
2022-08-08T13:47:18.424Z,25.30
2022-08-08T13:50:36.351Z,25.50
2022-08-08T13:52:48.836Z,25.70
2022-08-08T13:55:29.509Z,25.80
2022-08-08T13:58:08.767Z,25.70
2022-08-08T14:00:45.522Z,25.60
2022-08-08T14:03:52.329Z,25.60
2022-08-08T14:06:09.031Z,25.50
2022-08-08T14:08:56.858Z,25.40
2022-08-08T14:11:24.669Z,25.40
2022-08-08T14:14:00.368Z,25.30
2022-08-08T14:16:27.813Z,25.20
2022-08-08T14:18:55.634Z,25.20
2022-08-08T14:21:23.877Z,25.20
2022-08-08T14:24:03.965Z,25.20
2022-08-08T14:26:46.331Z,25.10
2022-08-08T14:29:28.899Z,25.30
2022-08-08T14:32:12.720Z,25.40
2022-08-08T14:34:49.431Z,25.60
2022-08-08T14:37:17.817Z,25.80
2022-08-08T14:40:06.334Z,25.90
2022-08-08T14:42:35.296Z,25.80
2022-08-08T14:45:03.314Z,25.80
2022-08-08T14:47:36.519Z,25.70
2022-08-08T14:50:10.723Z,25.60
2022-08-08T14:52:42.909Z,25.60
2022-08-08T14:55:10.558Z,25.50
2022-08-08T14:58:03.119Z,25.40
2022-08-08T15:00:26.155Z,25.40
2022-08-08T15:03:14.281Z,25.30
2022-08-08T15:05:54.407Z,25.30
2022-08-08T15:08:34.417Z,25.30
2022-08-08T15:11:09.317Z,25.20
2022-08-08T15:13:40.581Z,25.20
2022-08-08T15:16:24.456Z,25.30
2022-08-08T15:18:51.881Z,25.50
2022-08-08T15:21:19.258Z,25.70
2022-08-08T15:23:51.279Z,25.70
2022-08-08T15:26:19.317Z,25.70
2022-08-08T15:28:46.588Z,25.60
2022-08-08T15:31:25.910Z,25.60
2022-08-08T15:34:06.749Z,25.50
2022-08-08T15:36:35.367Z,25.40
2022-08-08T15:39:03.575Z,25.30
2022-08-08T15:41:43.640Z,25.40
2022-08-08T15:44:13.754Z,25.30
2022-08-08T15:46:45.483Z,25.30
2022-08-08T15:49:17.535Z,25.40
2022-08-08T15:51:54.673Z,25.60
2022-08-08T15:54:38.298Z,25.70
2022-08-08T15:57:08.901Z,26.00
2022-08-08T16:00:05.984Z,26.10
2022-08-08T16:02:31.239Z,26.10
2022-08-08T16:04:59.151Z,25.90
2022-08-08T16:07:51.674Z,25.80
2022-08-08T16:13:10.988Z,25.80
2022-08-08T16:13:27.867Z,25.70
2022-08-08T16:15:57.413Z,25.60
2022-08-08T16:18:24.616Z,25.50
2022-08-08T16:20:52.429Z,25.50
2022-08-08T16:23:19.106Z,25.40
2022-08-08T16:25:53.836Z,25.50
2022-08-08T16:28:35.331Z,25.70
2022-08-08T16:31:06.557Z,25.80
2022-08-08T16:33:38.945Z,26.00
2022-08-08T16:36:08.790Z,26.10
2022-08-08T16:38:44.445Z,26.10
2022-08-08T16:41:12.092Z,26.10
2022-08-08T16:43:51.141Z,26.00
2022-08-08T16:46:36.659Z,25.80
2022-08-08T16:49:06.239Z,25.80
2022-08-08T16:55:01.173Z,25.60
2022-08-08T16:55:02.808Z,25.70
2022-08-08T16:58:12.799Z,25.60
2022-08-08T16:59:58.907Z,25.60
2022-08-08T17:02:38.623Z,25.50
2022-08-08T17:05:07.226Z,25.50
2022-08-08T17:07:37.770Z,25.40
2022-08-08T17:10:08.274Z,25.50
2022-08-08T17:12:36.429Z,25.60
2022-08-08T17:15:17.805Z,25.80
2022-08-08T17:18:02.338Z,25.90
2022-08-08T17:20:31.374Z,26.00
2022-08-08T17:23:16.372Z,26.00
2022-08-08T17:25:52.440Z,26.00
2022-08-08T17:28:34.340Z,25.90
2022-08-08T17:31:44.594Z,25.80
2022-08-08T17:34:54.038Z,25.70
2022-08-08T17:37:01.047Z,25.70
2022-08-08T17:40:02.789Z,25.60
2022-08-08T17:42:12.687Z,25.60
2022-08-08T17:44:39.699Z,25.50
2022-08-08T17:47:09.453Z,25.50
2022-08-08T17:49:42.535Z,25.50
2022-08-08T17:52:10.500Z,25.60
2022-08-08T17:54:37.533Z,25.70
2022-08-08T17:57:05.859Z,25.90
2022-08-08T17:59:36.057Z,26.00
2022-08-08T18:02:18.909Z,26.20
2022-08-08T18:04:50.578Z,26.10
2022-08-08T18:08:02.979Z,26.10
2022-08-08T18:10:04.630Z,26.00
2022-08-08T18:12:31.551Z,25.90
2022-08-08T18:14:58.667Z,25.80
2022-08-08T18:17:28.721Z,25.80
2022-08-08T18:20:37.333Z,25.70
2022-08-08T18:23:00.532Z,25.70
2022-08-08T18:25:28.528Z,25.60
2022-08-08T18:28:04.480Z,25.60
2022-08-08T18:30:31.950Z,25.60
2022-08-08T18:32:58.776Z,25.50
2022-08-08T18:35:34.294Z,25.50
2022-08-08T18:38:16.703Z,25.50
2022-08-08T18:40:45.808Z,25.40
2022-08-08T18:43:14.775Z,25.60
2022-08-08T18:46:00.862Z,25.70
2022-08-08T18:48:30.830Z,25.90
2022-08-08T18:50:58.532Z,26.00
2022-08-08T18:54:00.302Z,26.10
2022-08-08T18:56:29.492Z,26.10
2022-08-08T18:58:56.247Z,26.00
2022-08-08T19:02:14.282Z,26.00
2022-08-08T19:04:10.771Z,25.90
2022-08-08T19:06:39.524Z,25.80
2022-08-08T19:09:13.273Z,25.70
2022-08-08T19:11:46.459Z,25.70
2022-08-08T19:14:20.496Z,25.60
2022-08-08T19:16:47.956Z,25.60
2022-08-08T19:19:15.002Z,25.50
2022-08-08T19:21:49.627Z,25.50
2022-08-08T19:24:34.173Z,25.50
2022-08-08T19:27:04.162Z,25.40
2022-08-08T19:29:31.157Z,25.40
2022-08-08T19:32:00.739Z,25.40
2022-08-08T19:34:29.947Z,25.40
2022-08-08T19:36:59.265Z,25.40
2022-08-08T19:39:30.731Z,25.60
2022-08-08T19:42:02.896Z,25.80
2022-08-08T19:44:45.917Z,25.90
2022-08-08T19:47:15.756Z,26.00
2022-08-08T19:49:59.292Z,26.00
2022-08-08T19:52:35.031Z,25.90
2022-08-08T19:55:05.091Z,25.80
2022-08-08T19:57:33.028Z,25.70
2022-08-08T20:00:04.295Z,25.60
2022-08-08T20:02:38.553Z,25.60
2022-08-08T20:05:05.906Z,25.50
2022-08-08T20:08:38.844Z,25.50
2022-08-08T20:10:20.410Z,25.40
2022-08-08T20:13:14.788Z,25.40
2022-08-08T20:15:52.479Z,25.40
2022-08-08T20:18:20.830Z,25.30
2022-08-08T20:20:56.318Z,25.30
2022-08-08T20:23:23.716Z,25.20
2022-08-08T20:25:52.445Z,25.20
2022-08-08T20:28:24.405Z,25.20
2022-08-08T20:30:56.456Z,25.20
2022-08-08T20:34:03.632Z,25.20
2022-08-08T20:36:17.226Z,25.30
2022-08-08T20:38:49.153Z,25.40
2022-08-08T20:41:19.194Z,25.60
2022-08-08T20:43:49.647Z,25.70
2022-08-08T20:46:17.514Z,25.70
2022-08-08T20:48:47.833Z,25.70
2022-08-08T20:51:14.984Z,25.60
2022-08-08T20:54:01.178Z,25.60
2022-08-08T20:56:35.319Z,25.50
2022-08-08T20:59:06.382Z,25.50
2022-08-08T21:01:44.365Z,25.40
2022-08-08T21:04:23.310Z,25.40
2022-08-08T21:06:53.383Z,25.30
2022-08-08T21:09:21.682Z,25.30
2022-08-08T21:11:51.856Z,25.30
2022-08-08T21:14:33.410Z,25.20
2022-08-08T21:17:01.544Z,25.20
2022-08-08T21:19:44.233Z,25.20
2022-08-08T21:22:13.022Z,25.20
2022-08-08T21:24:41.826Z,25.10
2022-08-08T21:27:15.178Z,25.10
2022-08-08T21:30:02.715Z,25.10
2022-08-08T21:32:31.569Z,25.10
2022-08-08T21:36:15.142Z,25.00
2022-08-08T21:37:55.407Z,25.00
2022-08-08T21:40:30.951Z,25.20
2022-08-08T21:42:58.610Z,25.30
2022-08-08T21:47:59.298Z,25.40
2022-08-08T21:48:16.343Z,25.50
2022-08-08T21:50:48.241Z,25.50
2022-08-08T21:54:31.359Z,25.50
2022-08-08T21:56:26.462Z,25.40
2022-08-08T21:58:55.471Z,25.40
2022-08-08T22:01:38.961Z,25.30
2022-08-08T22:04:10.593Z,25.20
2022-08-08T22:06:40.405Z,25.20
2022-08-08T22:09:08.430Z,25.20
2022-08-08T22:11:59.367Z,25.10
2022-08-08T22:14:22.371Z,25.10
2022-08-08T22:16:53.507Z,25.10
2022-08-08T22:19:24.091Z,25.00
2022-08-08T22:21:51.582Z,25.00
2022-08-08T22:24:23.935Z,25.00
2022-08-08T22:27:01.308Z,24.90
2022-08-08T22:29:58.839Z,24.90
2022-08-08T22:32:18.276Z,24.90
2022-08-08T22:34:50.644Z,24.90
2022-08-08T22:37:48.988Z,24.90
2022-08-08T22:40:16.624Z,24.80
2022-08-08T22:42:45.632Z,24.90
2022-08-08T22:45:14.392Z,25.00
2022-08-08T22:47:47.437Z,25.20
2022-08-08T22:50:25.940Z,25.30
2022-08-08T22:54:15.809Z,25.40
2022-08-08T22:55:58.934Z,25.40
2022-08-08T22:58:29.197Z,25.30
2022-08-08T23:01:00.034Z,25.30
2022-08-08T23:03:34.210Z,25.20
2022-08-08T23:06:14.563Z,25.10
2022-08-08T23:08:44.226Z,25.10
2022-08-08T23:11:13.264Z,25.00
2022-08-08T23:13:42.187Z,25.00
2022-08-08T23:16:39.632Z,25.00
2022-08-08T23:19:08.810Z,24.90
2022-08-08T23:21:38.099Z,24.80
2022-08-08T23:24:06.102Z,24.80
2022-08-08T23:26:33.306Z,24.80
2022-08-08T23:29:00.872Z,24.80
2022-08-08T23:31:27.566Z,24.80
2022-08-08T23:34:17.563Z,24.70
2022-08-08T23:36:40.997Z,24.70
2022-08-08T23:39:09.316Z,24.70
2022-08-08T23:41:43.606Z,24.60
2022-08-08T23:44:13.071Z,24.60
2022-08-08T23:49:00.083Z,24.60
2022-08-08T23:49:26.486Z,24.60
2022-08-08T23:52:04.577Z,24.70
2022-08-08T23:54:43.682Z,24.80
2022-08-08T23:57:26.678Z,25.00
